Time;durP1;ratioP1;P1;durP2;ratioP2;P2;SDS_P1;SDS_P2;PMS_P1;PMS_P2;Temp;Humidity;BMP_temperature;BMP_pressure;BME280_temperature;BME280_humidity;BME280_pressure;Samples;Min_cycle;Max_cycle;Signal;HPM_P1;HPM_P2
2022/10/23 00:01:17;;;;;;;4.57;1.90;;;;;;;15.01;100.00;99578.13;5040393;28;20033;-74
2022/10/23 00:03:44;;;;;;;7.80;1.92;;;;;;;14.95;100.00;99562.84;5056560;28;20104;-74
2022/10/23 00:06:10;;;;;;;6.47;1.73;;;;;;;15.00;100.00;99566.28;5022331;28;20115;-74
2022/10/23 00:08:36;;;;;;;5.47;1.83;;;;;;;14.98;100.00;99565.78;5032301;28;20045;-74
2022/10/23 00:11:09;;;;;;;7.88;2.28;;;;;;;14.93;100.00;99556.84;5029787;28;20030;-74
2022/10/23 00:13:35;;;;;;;8.25;1.77;;;;;;;14.96;100.00;99557.00;5046240;28;20032;-72
2022/10/23 00:16:01;;;;;;;6.88;2.10;;;;;;;14.96;100.00;99558.97;5044609;28;20040;-74
2022/10/23 00:18:26;;;;;;;4.15;1.52;;;;;;;14.90;100.00;99550.03;5021095;28;20037;-74
2022/10/23 00:20:52;;;;;;;8.20;1.85;;;;;;;14.96;100.00;99553.47;5032052;28;20013;-75
2022/10/23 00:23:18;;;;;;;7.30;1.70;;;;;;;14.97;100.00;99533.88;5051049;28;20029;-75
2022/10/23 00:25:43;;;;;;;9.10;2.47;;;;;;;14.96;100.00;99542.44;5042794;28;20032;-74
2022/10/23 00:28:09;;;;;;;5.50;1.85;;;;;;;14.92;100.00;99524.94;5038044;28;20537;-73
2022/10/23 00:30:35;;;;;;;4.30;1.77;;;;;;;14.93;100.00;99532.06;5045621;28;20458;-74
2022/10/23 00:33:00;;;;;;;4.63;1.63;;;;;;;14.89;100.00;99522.81;5037478;28;20045;-74
2022/10/23 00:35:26;;;;;;;4.25;1.63;;;;;;;14.92;100.00;99519.44;5020808;28;20399;-73
2022/10/23 00:37:51;;;;;;;7.65;2.38;;;;;;;14.96;100.00;99514.91;5033459;28;20028;-74
2022/10/23 00:40:17;;;;;;;6.50;1.85;;;;;;;15.01;100.00;99523.06;5035782;28;20483;-74
2022/10/23 00:42:42;;;;;;;7.47;2.08;;;;;;;14.99;100.00;99514.28;5029517;28;20036;-74
2022/10/23 00:45:25;;;;;;;7.50;1.40;;;;;;;14.97;100.00;99505.53;5050605;28;20047;-73
2022/10/23 00:47:52;;;;;;;6.55;1.40;;;;;;;14.98;100.00;99501.63;5059280;28;20037;-73
2022/10/23 00:50:19;;;;;;;4.95;1.52;;;;;;;14.94;100.00;99489.66;5045161;28;20032;-73
2022/10/23 00:52:48;;;;;;;2.47;1.13;;;;;;;14.93;100.00;99490.78;5039940;28;20026;-73
2022/10/23 00:55:18;;;;;;;4.57;1.48;;;;;;;14.94;100.00;99492.41;5019308;28;20029;-73
2022/10/23 00:57:45;;;;;;;3.10;1.20;;;;;;;14.89;100.00;99487.84;5023502;28;20063;-74
2022/10/23 01:00:45;;;;;;;3.13;1.40;;;;;;;14.81;100.00;99469.38;5041544;28;20035;-74
2022/10/23 01:03:11;;;;;;;3.75;1.58;;;;;;;14.83;100.00;99462.44;5055096;28;20100;-73
2022/10/23 01:06:02;;;;;;;4.35;1.60;;;;;;;14.81;100.00;99461.91;5037959;28;20418;-73
2022/10/23 01:08:53;;;;;;;3.58;1.50;;;;;;;14.80;100.00;99445.72;5057579;28;20051;-78
2022/10/23 01:11:59;;;;;;;3.95;1.73;;;;;;;14.81;100.00;99448.16;5027835;28;20055;-74
2022/10/23 01:14:41;;;;;;;7.15;1.50;;;;;;;14.87;100.00;99439.78;5043701;28;20483;-74
2022/10/23 01:17:23;;;;;;;3.97;1.50;;;;;;;14.77;100.00;99429.84;5066870;28;20006;-74
2022/10/23 01:20:07;;;;;;;4.68;1.42;;;;;;;14.79;100.00;99422.91;5061305;28;20764;-74
2022/10/23 01:23:03;;;;;;;6.38;1.98;;;;;;;14.84;100.00;99424.69;5055824;28;20028;-73
2022/10/23 01:25:38;;;;;;;2.97;1.38;;;;;;;14.90;100.00;99417.91;5039381;28;20018;-74
2022/10/23 01:28:08;;;;;;;3.47;1.15;;;;;;;14.79;100.00;99400.91;5041323;28;20028;-73
2022/10/23 01:30:39;;;;;;;4.45;1.73;;;;;;;14.87;100.00;99426.00;5037896;28;20025;-73
2022/10/23 01:33:13;;;;;;;4.05;1.60;;;;;;;14.88;100.00;99433.13;5052659;28;20059;-74
2022/10/23 01:35:49;;;;;;;3.75;1.60;;;;;;;14.86;100.00;99421.63;5039070;28;20025;-75
2022/10/23 01:38:17;;;;;;;6.38;1.75;;;;;;;14.89;100.00;99432.00;5054763;28;20033;-73
2022/10/23 01:41:10;;;;;;;5.05;2.05;;;;;;;14.92;100.00;99425.84;5039894;28;20438;-74
2022/10/23 01:43:55;;;;;;;1.88;1.35;;;;;;;14.91;100.00;99383.75;5053564;28;20025;-72
2022/10/23 01:46:23;;;;;;;2.67;1.30;;;;;;;14.89;100.00;99343.91;5025256;28;20133;-74
2022/10/23 01:48:52;;;;;;;4.47;1.65;;;;;;;14.90;100.00;99337.28;5022268;28;20025;-72
2022/10/23 01:51:21;;;;;;;2.92;1.40;;;;;;;14.88;100.00;99331.28;5039997;28;20021;-73
2022/10/23 01:53:49;;;;;;;4.40;1.60;;;;;;;14.92;100.00;99365.28;5060910;28;20572;-74
2022/10/23 01:56:20;;;;;;;9.70;1.70;;;;;;;14.96;100.00;99366.28;5055012;28;20033;-73
2022/10/23 01:58:49;;;;;;;4.50;1.52;;;;;;;15.00;100.00;99357.03;5051686;28;20036;-75
2022/10/23 02:01:18;;;;;;;4.78;1.40;;;;;;;14.99;100.00;99354.63;5025170;28;20035;-76
2022/10/23 02:03:46;;;;;;;3.88;1.50;;;;;;;14.95;100.00;99345.38;5044166;28;20020;-73
2022/10/23 02:06:11;;;;;;;2.83;1.25;;;;;;;15.00;100.00;99346.03;5033725;28;20028;-74
2022/10/23 02:08:37;;;;;;;6.38;1.60;;;;;;;15.00;100.00;99339.72;5031302;28;20394;-74
2022/10/23 02:11:13;;;;;;;3.75;1.80;;;;;;;14.97;100.00;99337.63;5024234;28;20048;-75
2022/10/23 02:14:02;;;;;;;7.88;1.20;;;;;;;14.96;100.00;99323.03;5025006;28;20028;-73
2022/10/23 02:16:46;;;;;;;7.57;1.77;;;;;;;14.95;100.00;99304.09;5057389;28;20033;-73
2022/10/23 02:19:27;;;;;;;5.90;1.80;;;;;;;14.95;100.00;99298.59;5044146;28;20032;-75
2022/10/23 02:22:08;;;;;;;5.65;1.30;;;;;;;14.95;100.00;99287.56;5039285;28;20043;-74
2022/10/23 02:24:58;;;;;;;3.55;1.65;;;;;;;14.98;100.00;99300.69;5039730;28;20032;-74
2022/10/23 02:27:52;;;;;;;4.18;1.35;;;;;;;14.98;100.00;99290.50;5050787;28;20028;-74
2022/10/23 02:30:19;;;;;;;6.67;1.80;;;;;;;15.05;100.00;99284.50;5036199;28;20112;-75
2022/10/23 02:32:49;;;;;;;7.28;1.55;;;;;;;14.98;100.00;99270.41;5052084;28;20055;-73
2022/10/23 02:35:16;;;;;;;6.07;1.42;;;;;;;14.93;100.00;99254.06;5049176;28;20031;-73
2022/10/23 02:37:41;;;;;;;3.47;1.40;;;;;;;14.97;100.00;99264.09;5034760;28;20379;-75
2022/10/23 02:40:08;;;;;;;3.90;1.73;;;;;;;14.96;100.00;99251.47;5041499;28;20061;-73
2022/10/23 02:42:53;;;;;;;4.45;2.13;;;;;;;14.95;100.00;99251.78;5019677;28;20453;-74
2022/10/23 02:45:34;;;;;;;5.97;1.40;;;;;;;14.96;100.00;99247.91;5052504;28;20700;-74
2022/10/23 02:48:14;;;;;;;5.65;1.42;;;;;;;14.94;100.00;99242.72;5022913;28;20025;-73
2022/10/23 02:50:53;;;;;;;4.80;1.23;;;;;;;14.98;100.00;99229.13;5033911;28;20022;-73
2022/10/23 02:53:30;;;;;;;2.88;1.30;;;;;;;15.07;100.00;99227.19;5056868;28;20055;-74
2022/10/23 02:56:19;;;;;;;8.18;1.45;;;;;;;15.03;100.00;99212.44;5035948;28;20096;-74
2022/10/23 02:59:23;;;;;;;4.57;1.30;;;;;;;15.04;100.00;99196.72;5043386;28;20021;-73
2022/10/23 03:02:12;;;;;;;3.72;1.45;;;;;;;15.06;100.00;99178.75;5036751;28;20333;-76
2022/10/23 03:04:53;;;;;;;6.93;1.55;;;;;;;15.13;100.00;99178.28;5065734;28;20104;-73
2022/10/23 03:07:22;;;;;;;8.90;1.33;;;;;;;15.23;100.00;99152.31;5050161;28;20045;-76
2022/10/23 03:09:51;;;;;;;4.90;1.58;;;;;;;15.26;100.00;99143.38;5050293;28;20017;-74
2022/10/23 03:12:19;;;;;;;5.72;1.63;;;;;;;15.22;100.00;99132.25;5045311;28;20029;-75
2022/10/23 03:14:45;;;;;;;3.55;1.33;;;;;;;15.24;100.00;99126.41;5053525;28;20648;-75
2022/10/23 03:17:19;;;;;;;3.88;1.58;;;;;;;15.34;100.00;99131.56;5057314;28;20122;-75
2022/10/23 03:19:51;;;;;;;;;;;;;;;15.43;100.00;99124.06;5063004;28;20111;-75
2022/10/23 03:22:22;;;;;;;4.43;1.13;;;;;;;15.40;100.00;99110.94;5075235;28;19909;-74
2022/10/23 03:24:48;;;;;;;5.07;1.77;;;;;;;15.45;100.00;99099.75;5068391;28;20017;-74
2022/10/23 03:27:25;;;;;;;4.25;1.50;;;;;;;15.45;100.00;99074.13;5034442;28;20035;-76
2022/10/23 03:29:56;;;;;;;4.65;1.38;;;;;;;15.55;100.00;99084.81;5044596;28;20029;-75
2022/10/23 03:32:27;;;;;;;3.42;1.10;;;;;;;15.58;100.00;99086.91;5065034;28;20144;-75
2022/10/23 03:34:59;;;;;;;2.95;1.10;;;;;;;15.44;100.00;99072.53;5039713;28;20036;-75
2022/10/23 03:37:28;;;;;;;5.15;1.13;;;;;;;15.60;100.00;99108.59;5053589;28;20093;-76
2022/10/23 03:39:53;;;;;;;3.05;1.45;;;;;;;15.50;100.00;99091.28;5050910;28;20025;-76
2022/10/23 03:42:19;;;;;;;3.38;1.30;;;;;;;15.58;100.00;99092.41;5054514;28;20043;-75
2022/10/23 03:44:44;;;;;;;5.07;1.13;;;;;;;15.61;100.00;99083.47;5026529;28;20036;-76
2022/10/23 03:47:10;;;;;;;3.97;1.55;;;;;;;15.60;100.00;99076.34;5068083;28;20031;-75
2022/10/23 03:49:37;;;;;;;7.35;1.50;;;;;;;15.58;100.00;99094.34;5018655;28;20079;-76
2022/10/23 03:52:03;;;;;;;7.25;1.30;;;;;;;15.58;100.00;99099.84;5016654;28;20029;-75
2022/10/23 03:54:29;;;;;;;3.13;1.58;;;;;;;15.64;100.00;99113.13;5036304;28;20031;-75
2022/10/23 03:56:55;;;;;;;5.80;1.20;;;;;;;15.53;100.00;99120.94;5060547;28;20032;-75
2022/10/23 03:59:20;;;;;;;8.45;1.08;;;;;;;15.52;100.00;99124.84;5043559;28;20036;-76
2022/10/23 04:01:51;;;;;;;5.30;1.08;;;;;;;15.58;100.00;99125.47;5059762;28;20029;-74
2022/10/23 04:04:16;;;;;;;3.80;1.17;;;;;;;15.57;100.00;99118.34;5042124;28;20025;-74
2022/10/23 04:06:42;;;;;;;5.05;1.40;;;;;;;15.49;100.00;99108.97;4995114;28;20048;-74
2022/10/23 04:09:08;;;;;;;13.93;1.20;;;;;;;15.53;100.00;99104.41;5063183;28;20033;-74
2022/10/23 04:11:33;;;;;;;2.58;1.10;;;;;;;15.52;100.00;99096.47;5043025;28;20028;-74
2022/10/23 04:13:59;;;;;;;2.22;0.82;;;;;;;15.48;100.00;99093.59;5036354;28;20105;-74
2022/10/23 04:16:25;;;;;;;2.88;0.88;;;;;;;15.47;100.00;99104.94;5039805;28;20034;-74
2022/10/23 04:18:50;;;;;;;7.00;1.00;;;;;;;15.45;100.00;99102.50;5039903;28;20102;-73
2022/10/23 04:21:16;;;;;;;5.45;1.10;;;;;;;15.40;100.00;99108.19;5030944;28;20099;-75
2022/10/23 04:23:44;;;;;;;4.25;1.15;;;;;;;15.40;100.00;99105.44;5030776;28;20063;-75
2022/10/23 04:26:10;;;;;;;10.05;1.10;;;;;;;15.50;100.00;99110.56;5038018;28;20146;-75
2022/10/23 04:28:35;;;;;;;2.85;1.33;;;;;;;15.57;100.00;99114.78;5020247;28;20080;-75
2022/10/23 04:31:01;;;;;;;0.93;0.75;;;;;;;15.56;100.00;99119.47;5040097;28;20029;-74
2022/10/23 04:33:26;;;;;;;3.83;0.90;;;;;;;15.53;100.00;99106.34;5037609;28;20130;-75
2022/10/23 04:35:52;;;;;;;5.53;1.33;;;;;;;15.55;100.00;99093.06;5019021;28;20052;-74
2022/10/23 04:38:17;;;;;;;3.15;1.10;;;;;;;15.57;100.00;99068.75;5043635;28;20447;-75
2022/10/23 04:40:43;;;;;;;2.45;1.15;;;;;;;15.52;100.00;99072.50;5034261;28;20482;-75
2022/10/23 04:43:08;;;;;;;3.00;0.93;;;;;;;15.50;100.00;99040.91;5027912;28;20027;-74
2022/10/23 04:45:34;;;;;;;3.47;1.20;;;;;;;15.51;100.00;99028.75;5022178;28;20048;-74
2022/10/23 04:47:59;;;;;;;3.10;0.80;;;;;;;15.52;100.00;99047.69;5028147;28;20020;-74
2022/10/23 04:50:25;;;;;;;2.55;0.77;;;;;;;15.52;100.00;99058.72;5043336;28;20040;-74
2022/10/23 04:52:55;;;;;;;3.22;0.93;;;;;;;15.55;100.00;99062.78;5042640;28;20033;-73
2022/10/23 04:55:21;;;;;;;5.82;0.90;;;;;;;15.52;100.00;99075.25;5026486;28;20052;-72
2022/10/23 04:57:46;;;;;;;3.97;1.02;;;;;;;15.52;100.00;99075.25;5028163;28;20526;-73
2022/10/23 05:00:13;;;;;;;7.35;1.48;;;;;;;15.50;100.00;99055.47;5041931;28;20028;-73
2022/10/23 05:02:39;;;;;;;3.28;1.17;;;;;;;15.26;100.00;99082.81;5045770;28;20034;-73
2022/10/23 05:05:06;;;;;;;3.97;1.05;;;;;;;15.03;100.00;99041.78;5051185;28;20029;-75
2022/10/23 05:07:32;;;;;;;3.13;0.90;;;;;;;14.89;100.00;99024.66;5052307;28;20075;-75
2022/10/23 05:09:57;;;;;;;3.53;0.90;;;;;;;14.73;100.00;99030.69;5040172;28;20033;-76
2022/10/23 05:12:25;;;;;;;4.78;1.10;;;;;;;14.65;100.00;99048.84;5017066;28;20025;-73
2022/10/23 05:14:51;;;;;;;2.08;0.95;;;;;;;14.64;100.00;99062.91;5019476;28;20039;-75
2022/10/23 05:17:22;;;;;;;4.32;1.08;;;;;;;14.63;100.00;99061.28;5061363;28;20036;-74
2022/10/23 05:19:52;;;;;;;3.13;0.93;;;;;;;14.61;100.00;99055.28;5046597;28;20017;-74
2022/10/23 05:22:19;;;;;;;2.40;0.82;;;;;;;14.63;100.00;99053.88;5032250;28;20037;-73
2022/10/23 05:24:45;;;;;;;3.22;1.10;;;;;;;14.65;100.00;99045.28;5037519;28;21089;-74
2022/10/23 05:27:12;;;;;;;4.55;1.13;;;;;;;14.67;100.00;99045.75;5061921;28;20513;-74
2022/10/23 05:29:37;;;;;;;2.58;0.82;;;;;;;14.68;100.00;99036.38;5037376;28;20036;-74
2022/10/23 05:32:05;;;;;;;3.08;1.10;;;;;;;14.72;100.00;99042.84;5020468;28;20057;-75
2022/10/23 05:34:41;;;;;;;1.35;0.85;;;;;;;14.65;100.00;99037.03;5043873;28;20431;-73
2022/10/23 05:37:09;;;;;;;1.75;0.90;;;;;;;14.74;100.00;99062.56;5042841;28;20028;-76
2022/10/23 05:39:37;;;;;;;4.93;1.15;;;;;;;14.77;100.00;99017.88;5027066;28;20090;-74
2022/10/23 05:42:03;;;;;;;1.23;0.75;;;;;;;14.74;100.00;99007.53;5026029;28;20035;-75
2022/10/23 05:44:28;;;;;;;1.88;0.98;;;;;;;14.69;100.00;98988.47;5022058;28;20100;-75
2022/10/23 05:46:53;;;;;;;2.63;0.85;;;;;;;14.63;100.00;98995.25;5029111;28;20028;-75
2022/10/23 05:49:19;;;;;;;2.95;1.15;;;;;;;14.63;100.00;98996.09;5039396;28;20028;-74
2022/10/23 05:51:44;;;;;;;1.65;0.80;;;;;;;14.61;100.00;98967.25;5027788;28;20033;-74
2022/10/23 05:54:10;;;;;;;2.00;0.82;;;;;;;14.58;100.00;98965.16;5016550;28;20032;-75
2022/10/23 05:56:37;;;;;;;4.00;1.10;;;;;;;14.62;100.00;98971.66;5049669;28;20028;-76
2022/10/23 05:59:03;;;;;;;4.88;1.27;;;;;;;14.67;100.00;98993.47;5042991;28;20028;-75
2022/10/23 06:01:29;;;;;;;3.33;1.15;;;;;;;14.72;100.00;98993.31;5036223;28;20052;-75
2022/10/23 06:03:57;;;;;;;3.50;0.88;;;;;;;14.74;100.00;98993.78;5041536;28;20070;-74
2022/10/23 06:06:22;;;;;;;5.00;1.33;;;;;;;14.74;100.00;99012.25;5037910;28;20025;-73
2022/10/23 06:08:48;;;;;;;3.03;1.23;;;;;;;14.74;100.00;99029.53;5042251;28;20044;-74
2022/10/23 06:11:14;;;;;;;4.93;0.98;;;;;;;14.75;100.00;99052.38;5040147;28;20028;-74
2022/10/23 06:13:44;;;;;;;5.95;2.03;;;;;;;14.62;100.00;99059.69;5054086;28;20124;-74
2022/10/23 06:16:23;;;;;;;3.60;1.02;;;;;;;14.34;100.00;99029.78;5045864;28;20033;-74
2022/10/23 06:18:51;;;;;;;6.25;2.20;;;;;;;14.33;100.00;99063.91;5053397;28;20032;-75
2022/10/23 06:21:17;;;;;;;4.10;1.20;;;;;;;14.27;100.00;99030.25;5033206;28;20021;-76
2022/10/23 06:23:44;;;;;;;2.95;1.38;;;;;;;14.18;100.00;99023.97;5029538;28;20083;-72
2022/10/23 06:26:12;;;;;;;8.48;1.38;;;;;;;14.14;100.00;99029.28;5035999;28;20482;-74
2022/10/23 06:28:38;;;;;;;4.15;1.70;;;;;;;14.12;100.00;99042.56;5050052;28;20032;-75
2022/10/23 06:31:08;;;;;;;7.38;1.27;;;;;;;14.06;100.00;99021.88;5037583;28;20059;-74
2022/10/23 06:33:36;;;;;;;6.90;1.73;;;;;;;14.04;100.00;99026.84;5036991;28;20053;-75
2022/10/23 06:36:04;;;;;;;7.40;2.00;;;;;;;13.97;100.00;99029.28;5024108;28;20055;-74
2022/10/23 06:38:35;;;;;;;6.90;1.42;;;;;;;13.96;100.00;99016.69;5033128;28;20049;-75
2022/10/23 06:41:01;;;;;;;6.55;1.23;;;;;;;13.97;100.00;99023.78;5035286;28;20022;-75
2022/10/23 06:43:27;;;;;;;6.53;1.52;;;;;;;13.93;100.00;98968.66;5053893;28;20030;-76
2022/10/23 06:45:52;;;;;;;2.53;1.00;;;;;;;13.91;100.00;98992.91;4998225;28;20406;-75
2022/10/23 06:48:18;;;;;;;4.38;1.08;;;;;;;13.94;100.00;98963.97;5038512;28;20384;-75
2022/10/23 06:50:43;;;;;;;5.05;0.80;;;;;;;13.88;100.00;98937.81;5029880;28;20488;-73
2022/10/23 06:53:11;;;;;;;3.78;0.73;;;;;;;13.82;100.00;98945.41;5028685;28;20025;-74
2022/10/23 06:55:38;;;;;;;2.30;0.88;;;;;;;13.77;100.00;98907.91;5039524;28;20068;-74
2022/10/23 06:58:09;;;;;;;1.83;1.02;;;;;;;13.78;100.00;98922.44;5034137;28;20033;-74
2022/10/23 07:00:37;;;;;;;1.63;0.60;;;;;;;13.81;100.00;98929.22;5028862;28;20040;-74
2022/10/23 07:03:07;;;;;;;0.80;0.70;;;;;;;13.84;100.00;98945.06;5023521;28;20060;-73
2022/10/23 07:05:32;;;;;;;1.33;0.60;;;;;;;13.88;100.00;98943.28;5040064;28;20065;-72
2022/10/23 07:07:58;;;;;;;0.40;0.30;;;;;;;13.91;100.00;98948.13;5032756;28;20029;-75
2022/10/23 07:10:26;;;;;;;1.50;0.47;;;;;;;13.93;100.00;98951.34;5039872;28;20032;-73
2022/10/23 07:12:59;;;;;;;1.50;0.73;;;;;;;13.95;100.00;98960.91;5031241;28;20047;-74
2022/10/23 07:15:32;;;;;;;5.45;1.10;;;;;;;13.93;100.00;98957.69;5042206;28;20041;-74
2022/10/23 07:17:57;;;;;;;1.65;0.60;;;;;;;13.92;100.00;98967.03;5010310;28;20152;-74
2022/10/23 07:20:23;;;;;;;2.08;0.80;;;;;;;13.89;100.00;98959.47;5036963;28;20120;-74
2022/10/23 07:22:55;;;;;;;1.30;0.90;;;;;;;13.92;100.00;98947.81;5044519;28;20029;-75
2022/10/23 07:25:22;;;;;;;3.97;0.80;;;;;;;13.87;100.00;98941.66;5052778;28;20365;-75
2022/10/23 07:28:12;;;;;;;5.22;0.65;;;;;;;13.83;100.00;98952.50;5037696;28;20028;-74
2022/10/23 07:30:40;;;;;;;2.78;0.77;;;;;;;13.86;100.00;98940.06;5014244;28;20558;-74
2022/10/23 07:33:13;;;;;;;1.95;0.70;;;;;;;13.87;100.00;98933.44;5015477;28;20096;-74
2022/10/23 07:36:09;;;;;;;;;;;;;;;;;;;;;
2022/10/23 07:38:37;;;;;;;1.40;0.50;;;;;;;14.07;100.00;98935.50;5038297;28;20140;-75
2022/10/23 07:41:06;;;;;;;1.63;0.60;;;;;;;14.13;100.00;98942.47;5034455;28;20079;-74
2022/10/23 07:43:36;;;;;;;1.80;0.50;;;;;;;14.22;100.00;98925.13;5040140;28;20059;-74
2022/10/23 07:46:07;;;;;;;1.17;0.52;;;;;;;14.32;100.00;98939.34;5029058;28;20071;-74
2022/10/23 07:48:34;;;;;;;0.52;0.40;;;;;;;14.47;100.00;98942.69;5036119;28;20028;-74
2022/10/23 07:51:07;;;;;;;1.20;0.50;;;;;;;14.43;100.00;98934.31;5033352;28;20047;-73
2022/10/23 07:53:35;;;;;;;1.33;0.50;;;;;;;14.48;100.00;98947.91;5043073;28;20447;-74
2022/10/23 07:56:09;;;;;;;1.60;0.65;;;;;;;14.52;100.00;98974.72;5047970;28;20017;-73
2022/10/23 07:58:36;;;;;;;0.40;0.40;;;;;;;14.44;100.00;98988.19;5031059;28;20028;-73
2022/10/23 08:01:14;;;;;;;4.53;0.90;;;;;;;14.31;100.00;98994.69;5045926;28;21955;-75
2022/10/23 08:03:42;;;;;;;2.30;0.77;;;;;;;14.22;100.00;99002.09;5040626;28;20061;-74
2022/10/23 08:06:08;;;;;;;2.08;0.73;;;;;;;14.19;100.00;99008.25;5038316;28;20035;-74
2022/10/23 08:08:33;;;;;;;1.92;0.95;;;;;;;14.26;100.00;99025.06;5030349;28;20488;-74
2022/10/23 08:11:01;;;;;;;2.58;0.60;;;;;;;14.27;100.00;99012.94;5026811;28;20030;-75
2022/10/23 08:13:27;;;;;;;3.42;0.82;;;;;;;14.27;100.00;98983.50;5041578;28;20035;-75
2022/10/23 08:16:05;;;;;;;;;;;;;;;;;;;;;
2022/10/23 08:18:55;;;;;;;;;;;;;;;;;;;;;
2022/10/23 08:21:28;;;;;;;1.05;0.50;;;;;;;14.93;100.00;98959.56;5051629;28;20136;-74
2022/10/23 08:24:16;;;;;;;;;;;;;;;;;;;;;
2022/10/23 08:26:47;;;;;;;1.00;0.60;;;;;;;15.44;100.00;98938.38;5049193;28;20090;-74
2022/10/23 08:29:18;;;;;;;3.88;0.77;;;;;;;15.35;100.00;98926.63;5051411;28;20022;-74
2022/10/23 08:31:48;;;;;;;2.80;0.90;;;;;;;15.46;100.00;98874.69;5037729;28;20048;-74
2022/10/23 08:34:21;;;;;;;1.60;0.60;;;;;;;15.59;100.00;98843.28;5051855;28;20037;-74
2022/10/23 08:36:49;;;;;;;5.97;0.70;;;;;;;15.69;100.00;98831.03;5035140;28;20036;-74
2022/10/23 08:39:20;;;;;;;1.85;0.90;;;;;;;15.91;100.00;98826.31;5029056;28;20033;-75
2022/10/23 08:42:19;;;;;;;6.50;1.52;;;;;;;17.72;100.00;98836.28;5016748;28;20171;-74
2022/10/23 08:45:15;;;;;;;;;;;;;;;;;;;;;
2022/10/23 08:48:27;;;;;;;;;;;;;;;;;;;;;
2022/10/23 08:51:18;;;;;;;3.05;0.98;;;;;;;20.29;100.00;98832.59;5047934;28;20025;-74
2022/10/23 08:53:55;;;;;;;3.50;1.52;;;;;;;23.22;100.00;98855.13;5052009;28;20033;-74
2022/10/23 08:56:32;;;;;;;3.45;1.00;;;;;;;25.57;85.76;98854.19;5034812;28;20029;-76
2022/10/23 08:59:18;;;;;;;;;;;;;;;;;;;;;
2022/10/23 09:01:55;;;;;;;2.50;0.75;;;;;;;28.67;71.27;98873.59;5044423;28;20113;-74
2022/10/23 09:04:21;;;;;;;9.63;1.20;;;;;;;29.37;69.16;98863.53;5033658;28;20026;-72
2022/10/23 09:06:52;;;;;;;3.58;0.63;;;;;;;29.35;66.71;98893.31;5000817;28;20029;-74
2022/10/23 09:09:54;;;;;;;9.55;2.70;;;;;;;27.23;80.24;98869.81;5036760;28;20036;-75
2022/10/23 09:12:35;;;;;;;1.95;0.82;;;;;;;25.78;77.53;98860.88;5056311;28;20055;-73
2022/10/23 09:15:12;;;;;;;3.60;0.68;;;;;;;26.59;78.89;98886.03;5038907;28;20122;-73
2022/10/23 09:17:51;;;;;;;3.88;0.80;;;;;;;25.72;78.21;98870.91;5036287;28;20029;-78
2022/10/23 09:20:32;;;;;;;2.90;0.73;;;;;;;25.51;80.51;98880.19;5037910;28;21018;-71
2022/10/23 09:23:01;;;;;;;7.72;1.17;;;;;;;25.36;81.10;98882.22;5033266;28;20108;-72
2022/10/23 09:25:29;;;;;;;4.15;0.80;;;;;;;27.73;76.37;98881.72;5054670;28;20029;-71
2022/10/23 09:28:00;;;;;;;5.13;1.08;;;;;;;30.13;68.92;98892.19;5029378;28;20021;-73
2022/10/23 09:30:34;;;;;;;4.57;0.85;;;;;;;31.36;62.92;98875.88;5040971;28;20021;-73
2022/10/23 09:33:11;;;;;;;2.65;0.73;;;;;;;31.14;62.75;98891.34;5044731;28;20068;-72
2022/10/23 09:35:37;;;;;;;4.53;1.10;;;;;;;30.37;63.08;98887.19;5041811;28;20021;-74
2022/10/23 09:38:02;;;;;;;2.40;1.02;;;;;;;28.80;65.39;98879.41;5043292;28;20026;-74
2022/10/23 09:40:35;;;;;;;2.58;0.90;;;;;;;28.03;71.45;98870.50;5027329;28;20025;-74
2022/10/23 09:43:10;;;;;;;2.53;0.75;;;;;;;29.86;66.33;98893.97;5063678;28;20082;-73
2022/10/23 09:45:37;;;;;;;1.80;0.63;;;;;;;28.82;64.80;98884.59;5047655;28;20033;-73
2022/10/23 09:48:15;;;;;;;5.57;0.90;;;;;;;29.55;70.80;98901.78;5026925;28;20060;-73
2022/10/23 09:50:48;;;;;;;2.65;0.80;;;;;;;29.47;67.02;98891.88;5054619;28;20387;-74
2022/10/23 09:53:25;;;;;;;1.17;0.70;;;;;;;28.02;65.98;98899.84;5036866;28;20029;-72
2022/10/23 09:55:56;;;;;;;3.22;0.80;;;;;;;25.53;68.58;98895.38;5030876;28;20067;-74
2022/10/23 09:58:29;;;;;;;3.75;0.77;;;;;;;23.51;68.95;98909.06;5038933;28;20382;-74
2022/10/23 10:00:55;;;;;;;4.13;1.60;;;;;;;22.34;72.24;98907.75;5033324;28;20120;-73
2022/10/23 10:03:23;;;;;;;2.28;0.70;;;;;;;22.86;78.75;98916.16;5034606;28;20470;-74
2022/10/23 10:06:00;;;;;;;1.48;0.68;;;;;;;23.23;72.28;98920.03;5058278;28;20060;-74
2022/10/23 10:08:43;;;;;;;7.45;1.67;;;;;;;23.55;76.00;98919.44;5040431;28;20033;-73
2022/10/23 10:11:35;;;;;;;2.50;0.70;;;;;;;27.99;74.16;98937.22;5047269;28;20033;-74
2022/10/23 10:14:12;;;;;;;2.88;0.75;;;;;;;31.12;68.95;98929.75;5045826;28;20013;-72
2022/10/23 10:16:50;;;;;;;3.92;0.55;;;;;;;32.63;61.08;98927.47;5042618;28;20025;-74
2022/10/23 10:19:47;;;;;;;5.78;0.60;;;;;;;33.44;54.31;98924.38;5038848;28;20037;-73
2022/10/23 10:22:38;;;;;;;1.90;0.63;;;;;;;32.48;53.39;98910.16;5038348;28;20333;-72
2022/10/23 10:25:23;;;;;;;3.63;0.95;;;;;;;30.29;59.40;98926.03;5060254;28;20032;-72
2022/10/23 10:27:57;;;;;;;2.33;0.52;;;;;;;28.55;55.77;98922.75;5052688;28;20032;-72
2022/10/23 10:30:24;;;;;;;5.55;0.88;;;;;;;29.11;60.69;98918.66;5056235;28;20459;-74
2022/10/23 10:32:53;;;;;;;2.33;0.80;;;;;;;29.02;64.02;98910.78;5032424;28;20498;-73
2022/10/23 10:35:27;;;;;;;4.25;1.05;;;;;;;30.56;56.72;98910.94;5039494;28;20085;-73
2022/10/23 10:38:30;;;;;;;1.70;0.38;;;;;;;33.14;63.57;98901.13;5050780;28;20189;-72
2022/10/23 10:41:14;;;;;;;3.70;0.68;;;;;;;35.92;52.78;98893.69;5049020;28;20044;-73
2022/10/23 10:43:53;;;;;;;3.90;0.82;;;;;;;37.62;51.13;98878.34;5053248;28;20025;-72
2022/10/23 10:46:35;;;;;;;1.52;0.60;;;;;;;38.40;49.46;98883.03;5024800;28;20157;-73
2022/10/23 10:49:27;;;;;;;2.80;0.63;;;;;;;38.59;46.23;98877.88;5033906;28;20029;-75
2022/10/23 10:52:27;;;;;;;3.80;0.70;;;;;;;38.10;46.51;98868.00;5049033;28;20463;-73
2022/10/23 10:55:08;;;;;;;5.00;0.60;;;;;;;33.31;44.97;98864.94;5034154;28;20025;-73
2022/10/23 10:57:42;;;;;;;3.45;1.42;;;;;;;29.56;52.65;98861.94;5035793;28;21014;-74
2022/10/23 11:00:16;;;;;;;2.45;0.60;;;;;;;27.11;54.46;98847.94;5040083;28;20028;-73
2022/10/23 11:02:41;;;;;;;;;;;;;;;25.86;58.01;98854.06;5039850;28;20025;-73
2022/10/23 11:05:14;;;;;;;2.40;0.60;;;;;;;29.14;60.72;98860.72;5049885;28;19917;-74
2022/10/23 11:07:45;;;;;;;2.33;0.80;;;;;;;31.18;59.30;98853.75;5044399;28;20029;-73
2022/10/23 11:10:18;;;;;;;3.92;0.43;;;;;;;33.60;52.97;98858.22;5051636;28;20036;-73
2022/10/23 11:12:46;;;;;;;3.47;0.68;;;;;;;29.99;51.16;98845.38;5023081;28;20136;-71
2022/10/23 11:15:19;;;;;;;7.20;0.63;;;;;;;30.76;58.01;98846.75;5034620;28;20033;-73
2022/10/23 11:17:49;;;;;;;1.67;0.50;;;;;;;28.88;54.57;98832.25;5047567;28;20166;-74
2022/10/23 11:21:00;;;;;;;2.50;0.47;;;;;;;30.53;67.96;98832.84;5038216;28;20036;-73
2022/10/23 11:23:57;;;;;;;1.33;0.45;;;;;;;30.81;58.55;98818.03;4995045;28;20026;-73
2022/10/23 11:26:22;;;;;;;3.70;0.50;;;;;;;28.84;55.80;98831.53;4995084;28;20050;-71
2022/10/23 11:29:19;;;;;;;0.95;0.45;;;;;;;30.96;59.11;98834.56;5041377;28;20376;-73
2022/10/23 11:32:04;;;;;;;2.15;0.50;;;;;;;32.38;51.55;98830.06;5033049;28;20075;-73
2022/10/23 11:34:54;;;;;;;2.25;0.65;;;;;;;33.79;53.02;98820.28;5057553;28;20039;-72
2022/10/23 11:37:21;;;;;;;1.20;0.40;;;;;;;33.21;45.95;98811.06;5053111;28;20032;-73
2022/10/23 11:40:07;;;;;;;3.45;0.93;;;;;;;32.79;54.67;98814.16;5038055;28;20033;-73
2022/10/23 11:42:53;;;;;;;1.85;0.55;;;;;;;33.08;61.17;98804.66;5046202;28;20023;-73
2022/10/23 11:45:33;;;;;;;1.00;0.30;;;;;;;33.31;61.04;98792.13;5059286;28;20041;-74
2022/10/23 11:48:02;;;;;;;2.85;0.50;;;;;;;38.18;52.97;98809.25;5051896;28;20041;-73
2022/10/23 11:50:49;;;;;;;2.08;0.50;;;;;;;39.44;48.08;98790.34;5037512;28;20027;-74
2022/10/23 11:53:27;;;;;;;1.65;0.40;;;;;;;40.70;45.66;98792.81;5058162;28;20037;-73
2022/10/23 11:56:26;;;;;;;1.90;0.28;;;;;;;36.84;48.15;98787.19;5040698;28;21196;-71
2022/10/23 11:58:56;;;;;;;2.47;0.60;;;;;;;32.91;48.44;98774.94;5044635;28;20021;-72
2022/10/23 12:01:30;;;;;;;5.47;0.57;;;;;;;30.41;47.62;98764.66;5059938;28;20032;-73
2022/10/23 12:04:21;;;;;;;2.42;0.65;;;;;;;30.57;63.31;98754.59;5034202;28;20069;-73